createdAt,value
2022-08-06T00:05:35.078Z,7.70
2022-08-06T00:16:09.768Z,7.20
2022-08-06T00:25:35.397Z,7.50
2022-08-06T00:35:31.277Z,6.70
2022-08-06T00:45:31.797Z,6.10
2022-08-06T00:55:32.295Z,6.30
2022-08-06T01:06:04.647Z,7.00
2022-08-06T01:16:07.419Z,7.40
2022-08-06T01:25:46.657Z,9.30
2022-08-06T01:35:47.803Z,11.30
2022-08-06T01:45:42.238Z,12.90
2022-08-06T01:55:42.615Z,13.00
2022-08-06T02:05:32.111Z,13.10
2022-08-06T02:15:56.549Z,10.70
2022-08-06T02:25:31.336Z,9.40
2022-08-06T02:35:31.332Z,9.00
2022-08-06T02:55:34.244Z,7.90
2022-08-06T03:05:56.151Z,7.30
2022-08-06T03:15:58.339Z,6.80
2022-08-06T03:25:31.447Z,5.80
2022-08-06T03:35:50.576Z,5.00
2022-08-06T03:45:45.315Z,4.40
2022-08-06T03:55:31.352Z,4.60
2022-08-06T04:05:31.387Z,4.00
2022-08-06T04:15:31.356Z,3.60
2022-08-06T04:25:31.362Z,3.00
2022-08-06T04:36:08.214Z,3.00
2022-08-06T04:46:17.677Z,2.50
2022-08-06T04:55:33.303Z,2.20
2022-08-06T05:05:31.404Z,2.20
2022-08-06T05:15:31.651Z,2.60
2022-08-06T05:25:35.717Z,2.50
2022-08-06T05:35:40.239Z,2.90
2022-08-06T05:45:31.396Z,3.00
2022-08-06T05:55:38.666Z,3.30
2022-08-06T06:06:04.370Z,3.40
2022-08-06T06:16:00.210Z,3.60
2022-08-06T06:25:31.404Z,3.70
2022-08-06T06:35:32.635Z,3.30
2022-08-06T06:46:07.250Z,4.60
2022-08-06T06:55:57.396Z,5.30
2022-08-06T07:06:05.472Z,4.20
2022-08-06T07:15:31.424Z,5.20
2022-08-06T07:25:31.427Z,4.70
2022-08-06T07:35:31.438Z,5.30
2022-08-06T07:45:32.419Z,4.90
2022-08-06T07:55:39.840Z,4.30
2022-08-06T08:05:39.397Z,4.50
2022-08-06T08:15:31.453Z,4.90
2022-08-06T08:25:42.381Z,5.50
2022-08-06T08:35:31.453Z,4.70
2022-08-06T08:45:33.558Z,4.30
2022-08-06T08:57:08.863Z,3.70
2022-08-06T09:05:34.385Z,3.40
2022-08-06T09:15:33.060Z,3.30
2022-08-06T09:25:31.469Z,3.60
2022-08-06T09:35:42.914Z,3.90
2022-08-06T09:45:42.782Z,4.00
2022-08-06T09:55:31.499Z,4.00
2022-08-06T10:05:31.540Z,3.50
2022-08-06T10:15:58.106Z,3.00
2022-08-06T10:25:38.461Z,2.90
2022-08-06T10:35:31.514Z,1.70
2022-08-06T10:45:47.115Z,1.70
2022-08-06T10:55:37.569Z,1.70
2022-08-06T11:05:48.156Z,1.40
2022-08-06T11:15:37.826Z,2.80
2022-08-06T11:25:31.530Z,1.70
2022-08-06T11:35:31.537Z,1.60
2022-08-06T11:46:20.451Z,1.60
2022-08-06T11:55:31.546Z,1.50
2022-08-06T12:05:31.584Z,1.80
2022-08-06T12:16:00.056Z,1.30
2022-08-06T12:25:31.566Z,1.30
2022-08-06T12:35:31.574Z,1.40
2022-08-06T12:45:32.984Z,1.60
2022-08-06T12:55:31.581Z,1.80
2022-08-06T13:05:31.616Z,2.10
2022-08-06T13:15:31.673Z,1.70
2022-08-06T13:25:52.194Z,1.60
2022-08-06T13:35:32.735Z,1.80
2022-08-06T13:45:56.438Z,1.50
2022-08-06T13:56:00.305Z,2.00
2022-08-06T14:05:31.688Z,2.50
2022-08-06T14:15:31.606Z,1.90
2022-08-06T14:25:52.324Z,1.70
2022-08-06T14:35:39.813Z,1.60
2022-08-06T14:45:39.179Z,1.90
2022-08-06T14:55:31.633Z,1.50
2022-08-06T15:05:41.559Z,1.40
2022-08-06T15:15:36.657Z,1.20
2022-08-06T15:26:00.190Z,1.20
2022-08-06T15:35:43.595Z,1.20
2022-08-06T15:45:51.428Z,1.00
2022-08-06T15:55:32.008Z,1.00
2022-08-06T16:05:32.578Z,0.90
2022-08-06T16:15:34.328Z,0.70
2022-08-06T16:25:40.712Z,0.80
2022-08-06T16:35:33.220Z,0.50
2022-08-06T16:45:37.356Z,0.60
2022-08-06T16:55:31.872Z,0.40
2022-08-06T17:05:44.878Z,0.40
2022-08-06T17:15:36.496Z,0.40
2022-08-06T17:25:51.489Z,0.60
2022-08-06T17:36:31.851Z,0.50
2022-08-06T17:45:31.715Z,0.60
2022-08-06T17:55:37.468Z,0.80
2022-08-06T18:05:36.416Z,2.40
2022-08-06T18:15:40.241Z,1.30
2022-08-06T18:25:54.568Z,0.70
2022-08-06T18:35:33.646Z,0.90
2022-08-06T18:45:31.745Z,0.90
2022-08-06T18:55:58.788Z,0.90
2022-08-06T19:05:31.782Z,1.10
2022-08-06T19:15:44.861Z,0.90
2022-08-06T19:25:41.878Z,0.80
2022-08-06T19:36:11.848Z,1.00
2022-08-06T19:46:30.302Z,1.30
2022-08-06T19:56:08.905Z,1.10
2022-08-06T20:06:17.875Z,1.30
2022-08-06T20:15:31.781Z,1.30
2022-08-06T20:25:40.715Z,0.90
2022-08-06T20:35:32.414Z,1.30
2022-08-06T20:45:57.418Z,1.20
2022-08-06T20:55:41.426Z,1.30
2022-08-06T21:05:46.866Z,1.60
2022-08-06T21:15:53.904Z,1.30
2022-08-06T21:25:39.739Z,2.10
2022-08-06T21:35:31.822Z,1.70
2022-08-06T21:45:50.389Z,2.20
2022-08-06T22:06:20.389Z,2.20
2022-08-06T22:15:45.268Z,2.10
2022-08-06T22:25:31.814Z,2.20
2022-08-06T22:35:38.536Z,2.30
2022-08-06T22:46:00.322Z,2.50
2022-08-06T22:55:34.927Z,2.30
2022-08-06T23:05:31.874Z,1.80
2022-08-06T23:15:40.541Z,1.40
2022-08-06T23:25:59.961Z,1.40
2022-08-06T23:35:35.181Z,1.50
2022-08-06T23:45:32.080Z,1.30
2022-08-06T23:55:35.021Z,1.30
